EDDH Airport Information

Runway Information
Runway 05 Length 10663 ft width 150 ft
Elevation 32 ft Threshold 978 ft Heading 50
Runway 23 Length 10663 ft Width 150 ft
Elevation 43 ft Threshold 512 ft Heading 230
Runway 15 Length 12028 ft width 150 ft
Elevation 53 ft Threshold 0 ft Heading 153
Runway 33 Length 12028 ft Width 150 ft
Elevation 35 ft Threshold 1464 ft Heading 333
Airport Frequencies
Type ATIS Name ATIS Frequency 123.125 MHZ
Type DIR Name DIRECTOR Frequency 118.2 MHZ
Type GND Name GND Frequency 121.8 MHZ
Type RDR Name BREMEN RAD Frequency 134.25 MHZ
Type RMP Name APRON Frequency 121.7 MHZ
Type TWR Name TWR Frequency 126.85 MHZ
Airport Navaids
Type DME Name Alster Frequency 115800 KHZ
Type NDB Name Hamburg West Frequency 351 KHZ
Type NDB Name Hamburg North Frequency 323 KHZ
Type VORTAC Name Hamburg Frequency 113100 KHZ
Type NDB Name Hamburg Frequency 339 KHZ
Airport Weather Information & NOTAM
ADDS - METARS form results

(1424 UTC 14 June 2021)
Data provider http://aviationweather.gov/metar/data/
 
METAR text: EDDH 141420Z 23009KT 190V270 CAVOK 26/13 Q1018 NOSIG
Conditions at: EDDH (HAMBURG/FUHLSBUT, DE) observed 1420 UTC 14 June 2021
Temperature: 26.0°C (79°F)
Dewpoint: 13.0°C (55°F) [RH = 45%]
Pressure (altimeter): 30.06 inches Hg (1018.0 mb)
Winds: from the SW (230 degrees) at 10 MPH (9 knots; 4.6 m/s)
Visibility: 6 or more miles (10+ km)
Ceiling: ceiling and visibility are OK
Clouds: unknown
Weather: no significant weather observed at this time

METAR text: EDDH 141350Z 25008KT 210V290 CAVOK 26/13 Q1018 NOSIG
Conditions at: EDDH (HAMBURG/FUHLSBUT, DE) observed 1350 UTC 14 June 2021
Temperature: 26.0°C (79°F)
Dewpoint: 13.0°C (55°F) [RH = 45%]
Pressure (altimeter): 30.06 inches Hg (1018.0 mb)
Winds: from the WSW (250 degrees) at 9 MPH (8 knots; 4.1 m/s)
Visibility: 6 or more miles (10+ km)
Ceiling: ceiling and visibility are OK
Clouds: unknown
Weather: no significant weather observed at this time

Forecast for: EDDH (HAMBURG/FUHLSBUT, DE)
Text: TAF EDDH 141100Z 1412/1518 23011KT CAVOK
Forecast period: 1200 to 1500 UTC 14 June 2021
Forecast type: FROM: standard forecast or significant change
Winds: from the SW (230 degrees) at 13 MPH (11 knots; 5.7 m/s)
Visibility: 6 or more miles (10+ km)
Ceiling: unknown
Clouds: missing
Weather: NSW  (no significant weather)
Text: BECMG 1415/1419 31006KT
Forecast period: 1500 UTC 14 June 2021 to 1800 UTC 15 June 2021
Forecast type: BECOMING: Conditions expected to become as follows by 1900 UTC 14 June 2021
Winds: from the NW (310 degrees) at 7 MPH (6 knots; 3.1 m/s)
Visibility: 6 or more miles (10+ km)
Ceiling: unknown
Clouds: missing
Weather: NSW  (no significant weather)
Text: TEMPO 1423/1504 BKN009
Forecast period: 2300 UTC 14 June 2021 to 0400 UTC 15 June 2021
Forecast type: TEMPORARY: The following changes expected for less than half the time period
Visibility: missing
Ceiling: 900 feet AGL
Clouds: broken clouds at 900 feet AGL
Weather: no significant weather forecast for this period